Olin, IA (52320)

8:36 AM CST on November 27, 2014 (GMT -0600)
Olin, Iowa | Change Station
CLOSE
Current Station
Personal Weather Station
Location: Olin, IA
Elevation: 767 ft
Nearby Weather Stations

Elev 767 ft 42.00 °N, 91.14 °W | Updated 3 minutes ago

Overcast
Overcast
15.8 °F
Feels Like 16 °F
N
2.7
Wind Variable Wind from SSW

Today
High -- | Low -- °F
--% Chance of Precip.
Yesterday
High -- | Low -- °F
Precip. -- in
7:08 AM 4:35 PM
Waxing Crescent, 30% visible
Pressure 30.41 in
Visibility 10.0 miles
Clouds Few 1500 ft
Few 2000 ft
Mostly Cloudy 2600 ft
Windchill 16 °F
Dew Point 13 °F
Humidity 90%
Rainfall 0.00 in
Snow Depth Not available.
UV 0 out of 12
Pollen .10 out of 12
Air Quality Not available.
Flu Activity Not available.
METAR KMXO 271415Z AUTO 30013G18KT 10SM FEW015 FEW020 BKN026 M10/M12 A3041 RMK AO2

More Conditions Fewer Conditions

Pressure 30.41 in
Visibility 10.0 miles
Clouds Few 1500 ft
Few 2000 ft
Mostly Cloudy 2600 ft
Windchill 16 °F
Dew Point 13 °F
Humidity 90%
Rainfall 0.00 in
Snow Depth Not available.
UV 0 out of 12
Pollen .10 out of 12
Air Quality Not available.
Flu Activity Not available.
METAR KMXO 271415Z AUTO 30013G18KT 10SM FEW015 FEW020 BKN026 M10/M12 A3041 RMK AO2

More Conditions Fewer Conditions

10-Day Weather Forecast

Almanac

Astronomy

Nov. 27, 2014 Rise Set
Actual Time
Civil Twilight
Nautical Twilight
Astronomical Twilight
Moon
Length of Visible Light
Length of Day
Tomorrow will be .
, % of the Moon is Illuminated

Today's Extremes

State Highs State Lows

Community

WunderPhotos

Upload Photos

1,774,005 photos uploaded!

WunderBlogs® & News

Nearby

Air Quality

  Air Quality AQ Index Pollutant
Not available.

Snow Depth

Station Depth Elevation

Earthquake Activity

City Distance Mag. Time & Date
Minimum magnitude displayed is 2.5.

Coastal Water Temperatures

Place Temperature

Nearby Weather Stations